RYR0599 LIMC-LIBR
Flight info
| Callsign | RYR0599 |
|---|---|
| Flight time | 1h 31m |
| Altitude | 39000 |
| Route | VAKON DCT IBUPU DCT NEVMO DCT LISKO DCT UVOKA L612 DOLON |
| Aircraft | B38M/M-SDE1FGHILORVWXY/HB1 |
Departure
| Time | 2026-04-15 10:59 |
|---|---|
| Airport | Milan Malpensa International Airport (LIMC) |
Arrival
| Time | 2026-04-15 12:31 |
|---|---|
| Airport | Brindisi Airport (LIBR) |
| Time | Latitude | Longitude | Altitude | Speed | Heading |
|---|---|---|---|---|---|
| 2026-04-15 10:32 | 45.63005 | 8.71404 | 738 ft | 0 kts | 12° |
| 2026-04-15 10:46 | 45.62998 | 8.71402 | 739 ft | 4 kts | 11° |
| 2026-04-15 10:46 | 45.62973 | 8.71397 | 739 ft | 3 kts | 3° |
| 2026-04-15 10:47 | 45.62953 | 8.71397 | 738 ft | 3 kts | 347° |
| 2026-04-15 10:47 | 45.62937 | 8.71406 | 737 ft | 3 kts | 324° |
| 2026-04-15 10:47 | 45.62926 | 8.71422 | 737 ft | 2 kts | 310° |
| 2026-04-15 10:47 | 45.62921 | 8.71430 | 738 ft | 0 kts | 301° |
| 2026-04-15 10:52 | 45.62935 | 8.71422 | 738 ft | 4 kts | 353° |
| 2026-04-15 10:52 | 45.62970 | 8.71453 | 738 ft | 9 kts | 58° |
| 2026-04-15 10:53 | 45.62980 | 8.71556 | 738 ft | 13 kts | 85° |
| 2026-04-15 10:53 | 45.62987 | 8.71695 | 739 ft | 15 kts | 88° |
| 2026-04-15 10:53 | 45.62990 | 8.71856 | 739 ft | 17 kts | 89° |
| 2026-04-15 10:53 | 45.62999 | 8.72024 | 739 ft | 13 kts | 79° |
| 2026-04-15 10:54 | 45.63015 | 8.72153 | 738 ft | 13 kts | 78° |
| 2026-04-15 10:54 | 45.63042 | 8.72277 | 742 ft | 14 kts | 60° |
| 2026-04-15 10:54 | 45.63077 | 8.72355 | 743 ft | 14 kts | 42° |
| 2026-04-15 10:54 | 45.63202 | 8.72482 | 739 ft | 19 kts | 36° |
| 2026-04-15 10:55 | 45.63276 | 8.72558 | 739 ft | 21 kts | 36° |
| 2026-04-15 10:55 | 45.63404 | 8.72666 | 739 ft | 22 kts | 13° |
| 2026-04-15 10:55 | 45.63598 | 8.72650 | 738 ft | 18 kts | 349° |
| 2026-04-15 10:55 | 45.63727 | 8.72610 | 738 ft | 20 kts | 350° |
| 2026-04-15 10:56 | 45.63822 | 8.72586 | 738 ft | 21 kts | 350° |
| 2026-04-15 10:56 | 45.63971 | 8.72550 | 738 ft | 23 kts | 350° |
| 2026-04-15 10:56 | 45.64135 | 8.72510 | 737 ft | 25 kts | 350° |
| 2026-04-15 10:56 | 45.64302 | 8.72469 | 738 ft | 22 kts | 350° |
| 2026-04-15 10:57 | 45.64440 | 8.72494 | 738 ft | 17 kts | 56° |
| 2026-04-15 10:57 | 45.64634 | 8.72622 | 737 ft | 20 kts | 345° |
| 2026-04-15 10:57 | 45.64771 | 8.72582 | 737 ft | 18 kts | 358° |
| 2026-04-15 10:58 | 45.64884 | 8.72655 | 738 ft | 19 kts | 40° |
| 2026-04-15 10:58 | 45.64934 | 8.72796 | 738 ft | 16 kts | 117° |
| 2026-04-15 10:58 | 45.64846 | 8.72842 | 738 ft | 14 kts | 170° |
| 2026-04-15 10:58 | 45.64826 | 8.72847 | 765 ft | 0 kts | 170° |
| 2026-04-15 10:59 | 45.64794 | 8.72855 | 738 ft | 25 kts | 170° |
| 2026-04-15 10:59 | 45.64319 | 8.72983 | 738 ft | 112 kts | 169° |
| 2026-04-15 10:59 | 45.63326 | 8.73259 | 912 ft | 168 kts | 169° |
| 2026-04-15 10:59 | 45.62049 | 8.73351 | 1622 ft | 195 kts | 186° |
| 2026-04-15 11:00 | 45.60679 | 8.73250 | 2879 ft | 199 kts | 186° |
| 2026-04-15 11:00 | 45.59283 | 8.72912 | 3804 ft | 210 kts | 195° |
| 2026-04-15 11:00 | 45.57862 | 8.72166 | 4565 ft | 227 kts | 207° |
| 2026-04-15 11:00 | 45.56430 | 8.71043 | 5410 ft | 239 kts | 208° |
| 2026-04-15 11:01 | 45.54977 | 8.69917 | 6549 ft | 236 kts | 207° |
| 2026-04-15 11:01 | 45.53640 | 8.68544 | 7461 ft | 244 kts | 232° |
| 2026-04-15 11:01 | 45.53004 | 8.66284 | 8172 ft | 255 kts | 270° |
| 2026-04-15 11:01 | 45.53369 | 8.63862 | 9140 ft | 250 kts | 300° |
| 2026-04-15 11:02 | 45.54473 | 8.61974 | 10082 ft | 251 kts | 328° |
| 2026-04-15 11:02 | 45.56089 | 8.61134 | 10896 ft | 249 kts | 357° |
| 2026-04-15 11:02 | 45.57828 | 8.61008 | 11735 ft | 254 kts | 356° |
| 2026-04-15 11:02 | 45.59631 | 8.60914 | 12369 ft | 266 kts | 10° |
| 2026-04-15 11:03 | 45.61364 | 8.61926 | 12843 ft | 281 kts | 39° |
| 2026-04-15 11:03 | 45.62608 | 8.64145 | 13305 ft | 297 kts | 67° |
| 2026-04-15 11:03 | 45.63048 | 8.67097 | 13779 ft | 313 kts | 88° |
| 2026-04-15 11:03 | 45.63154 | 8.70284 | 14303 ft | 327 kts | 86° |
| 2026-04-15 11:04 | 45.63311 | 8.73583 | 14856 ft | 337 kts | 86° |
| 2026-04-15 11:04 | 45.63467 | 8.76923 | 15685 ft | 338 kts | 86° |
| 2026-04-15 11:04 | 45.63620 | 8.80263 | 16353 ft | 345 kts | 86° |
| 2026-04-15 11:04 | 45.63776 | 8.83685 | 17083 ft | 348 kts | 86° |
| 2026-04-15 11:05 | 45.63933 | 8.87166 | 17772 ft | 353 kts | 86° |
| 2026-04-15 11:05 | 45.64091 | 8.90689 | 18456 ft | 357 kts | 86° |
| 2026-04-15 11:05 | 45.64252 | 8.94300 | 19060 ft | 361 kts | 86° |
| 2026-04-15 11:05 | 45.64408 | 8.97844 | 19656 ft | 364 kts | 86° |
| 2026-04-15 11:06 | 45.64515 | 9.01462 | 20252 ft | 367 kts | 94° |
| 2026-04-15 11:06 | 45.64022 | 9.05030 | 20868 ft | 368 kts | 104° |
| 2026-04-15 11:06 | 45.63419 | 9.08605 | 21388 ft | 373 kts | 104° |
| 2026-04-15 11:06 | 45.62802 | 9.12212 | 21990 ft | 375 kts | 104° |
| 2026-04-15 11:07 | 45.62168 | 9.15845 | 22551 ft | 378 kts | 104° |
| 2026-04-15 11:07 | 45.61523 | 9.19498 | 23122 ft | 381 kts | 104° |
| 2026-04-15 11:07 | 45.60867 | 9.23184 | 23666 ft | 384 kts | 104° |
| 2026-04-15 11:07 | 45.60204 | 9.26901 | 24118 ft | 387 kts | 104° |
| 2026-04-15 11:08 | 45.59536 | 9.30637 | 24503 ft | 389 kts | 104° |
| 2026-04-15 11:08 | 45.58863 | 9.34389 | 24949 ft | 392 kts | 104° |
| 2026-04-15 11:08 | 45.58185 | 9.38162 | 25380 ft | 394 kts | 104° |
| 2026-04-15 11:08 | 45.57501 | 9.41962 | 25848 ft | 396 kts | 104° |
| 2026-04-15 11:09 | 45.56812 | 9.45781 | 26288 ft | 398 kts | 104° |
| 2026-04-15 11:09 | 45.56121 | 9.49615 | 26714 ft | 400 kts | 103° |
| 2026-04-15 11:09 | 45.55490 | 9.53502 | 27167 ft | 402 kts | 103° |
| 2026-04-15 11:09 | 45.54859 | 9.57396 | 27567 ft | 405 kts | 103° |
| 2026-04-15 11:10 | 45.54219 | 9.61317 | 27975 ft | 407 kts | 103° |
| 2026-04-15 11:10 | 45.53572 | 9.65259 | 28376 ft | 409 kts | 103° |
| 2026-04-15 11:10 | 45.52919 | 9.69232 | 28777 ft | 412 kts | 103° |
| 2026-04-15 11:10 | 45.52263 | 9.73209 | 29256 ft | 414 kts | 103° |
| 2026-04-15 11:11 | 45.51599 | 9.77225 | 29627 ft | 416 kts | 103° |
| 2026-04-15 11:11 | 45.50934 | 9.81242 | 29994 ft | 419 kts | 103° |
| 2026-04-15 11:11 | 45.50260 | 9.85296 | 30323 ft | 421 kts | 103° |
| 2026-04-15 11:11 | 45.49581 | 9.89375 | 30629 ft | 423 kts | 103° |
| 2026-04-15 11:12 | 45.48898 | 9.93462 | 30919 ft | 426 kts | 103° |
| 2026-04-15 11:12 | 45.48210 | 9.97574 | 31210 ft | 428 kts | 103° |
| 2026-04-15 11:12 | 45.47152 | 10.01531 | 31511 ft | 430 kts | 118° |
| 2026-04-15 11:12 | 45.45636 | 10.05229 | 31809 ft | 432 kts | 118° |
| 2026-04-15 11:13 | 45.44162 | 10.08971 | 32028 ft | 436 kts | 118° |
| 2026-04-15 11:13 | 45.42661 | 10.12728 | 32369 ft | 436 kts | 119° |
| 2026-04-15 11:13 | 45.41148 | 10.16479 | 32681 ft | 437 kts | 119° |
| 2026-04-15 11:13 | 45.39632 | 10.20223 | 33104 ft | 436 kts | 119° |
| 2026-04-15 11:14 | 45.38119 | 10.23952 | 33539 ft | 434 kts | 119° |
| 2026-04-15 11:14 | 45.36608 | 10.27670 | 33938 ft | 433 kts | 119° |
| 2026-04-15 11:14 | 45.35104 | 10.31365 | 34296 ft | 432 kts | 120° |
| 2026-04-15 11:14 | 45.33598 | 10.35062 | 34615 ft | 431 kts | 120° |
| 2026-04-15 11:15 | 45.32096 | 10.38744 | 34913 ft | 431 kts | 120° |
| 2026-04-15 11:15 | 45.30590 | 10.42432 | 35140 ft | 433 kts | 120° |
| 2026-04-15 11:15 | 45.27571 | 10.49804 | 35148 ft | 431 kts | 120° |
| 2026-04-15 11:16 | 45.24559 | 10.57143 | 35151 ft | 431 kts | 120° |
| 2026-04-15 11:16 | 45.21547 | 10.64460 | 35155 ft | 431 kts | 120° |
| 2026-04-15 11:17 | 45.18523 | 10.71794 | 35139 ft | 431 kts | 120° |
| 2026-04-15 11:17 | 45.15434 | 10.79084 | 35136 ft | 431 kts | 121° |
| 2026-04-15 11:18 | 45.12339 | 10.86360 | 35134 ft | 431 kts | 121° |
| 2026-04-15 11:18 | 45.09235 | 10.93638 | 35127 ft | 432 kts | 121° |
| 2026-04-15 11:19 | 45.06127 | 11.00907 | 35125 ft | 432 kts | 121° |
| 2026-04-15 11:19 | 45.03006 | 11.08187 | 35131 ft | 432 kts | 122° |
| 2026-04-15 11:20 | 44.99884 | 11.15456 | 35136 ft | 433 kts | 122° |
| 2026-04-15 11:20 | 44.96748 | 11.22732 | 35147 ft | 433 kts | 122° |
| 2026-04-15 11:21 | 44.93611 | 11.29998 | 35159 ft | 434 kts | 122° |
| 2026-04-15 11:21 | 44.90464 | 11.37266 | 35161 ft | 434 kts | 122° |
| 2026-04-15 11:22 | 44.87171 | 11.44390 | 35158 ft | 434 kts | 124° |
| 2026-04-15 11:22 | 44.85517 | 11.47961 | 34969 ft | 434 kts | 124° |
| 2026-04-15 11:22 | 44.83861 | 11.51532 | 35058 ft | 436 kts | 120° |
| 2026-04-15 11:23 | 44.80525 | 11.58742 | 35165 ft | 443 kts | 120° |
| 2026-04-15 11:23 | 44.77146 | 11.66017 | 35164 ft | 444 kts | 121° |
| 2026-04-15 11:24 | 44.73766 | 11.73276 | 35159 ft | 444 kts | 121° |
| 2026-04-15 11:24 | 44.70399 | 11.80489 | 35158 ft | 443 kts | 121° |
| 2026-04-15 11:25 | 44.67015 | 11.87723 | 35156 ft | 443 kts | 122° |
| 2026-04-15 11:25 | 44.63611 | 11.94978 | 35158 ft | 442 kts | 122° |
| 2026-04-15 11:26 | 44.60226 | 12.02176 | 35154 ft | 442 kts | 122° |
| 2026-04-15 11:26 | 44.56850 | 12.09336 | 35154 ft | 443 kts | 123° |
| 2026-04-15 11:27 | 44.53449 | 12.16532 | 35148 ft | 442 kts | 123° |
| 2026-04-15 11:27 | 44.50051 | 12.23703 | 35153 ft | 442 kts | 124° |
| 2026-04-15 11:28 | 44.46652 | 12.30860 | 35152 ft | 441 kts | 124° |
| 2026-04-15 11:28 | 44.43253 | 12.37998 | 35153 ft | 440 kts | 124° |
| 2026-04-15 11:29 | 44.39859 | 12.45106 | 35154 ft | 439 kts | 124° |
| 2026-04-15 11:29 | 44.36477 | 12.52176 | 35149 ft | 437 kts | 124° |
| 2026-04-15 11:30 | 44.33100 | 12.59214 | 35145 ft | 436 kts | 125° |
| 2026-04-15 11:30 | 44.29716 | 12.66252 | 35144 ft | 436 kts | 125° |
| 2026-04-15 11:31 | 44.26334 | 12.73268 | 35120 ft | 435 kts | 125° |
| 2026-04-15 11:31 | 44.22961 | 12.80249 | 35127 ft | 434 kts | 125° |
| 2026-04-15 11:32 | 44.19584 | 12.87222 | 35126 ft | 434 kts | 125° |
| 2026-04-15 11:32 | 44.16204 | 12.94182 | 35123 ft | 433 kts | 125° |
| 2026-04-15 11:33 | 44.12859 | 13.01056 | 35118 ft | 432 kts | 125° |
| 2026-04-15 11:33 | 44.09490 | 13.07960 | 35116 ft | 430 kts | 125° |
| 2026-04-15 11:34 | 44.06129 | 13.14834 | 35112 ft | 429 kts | 126° |
| 2026-04-15 11:34 | 44.02775 | 13.21678 | 35108 ft | 428 kts | 126° |
| 2026-04-15 11:35 | 43.99421 | 13.28505 | 35097 ft | 427 kts | 126° |
| 2026-04-15 11:35 | 43.96069 | 13.35310 | 35105 ft | 426 kts | 126° |
| 2026-04-15 11:36 | 43.92724 | 13.42087 | 35105 ft | 426 kts | 126° |
| 2026-04-15 11:36 | 43.89369 | 13.48868 | 35098 ft | 426 kts | 126° |
| 2026-04-15 11:37 | 43.86016 | 13.55631 | 35099 ft | 425 kts | 126° |
| 2026-04-15 11:37 | 43.82679 | 13.62345 | 35096 ft | 425 kts | 126° |
| 2026-04-15 11:38 | 43.79325 | 13.69076 | 35097 ft | 425 kts | 126° |
| 2026-04-15 11:38 | 43.75967 | 13.75801 | 35096 ft | 425 kts | 126° |
| 2026-04-15 11:39 | 43.72602 | 13.82525 | 35096 ft | 425 kts | 126° |
| 2026-04-15 11:39 | 43.69231 | 13.89246 | 35091 ft | 425 kts | 126° |
| 2026-04-15 11:40 | 43.65865 | 13.95946 | 35092 ft | 425 kts | 126° |
| 2026-04-15 11:40 | 43.62487 | 14.02654 | 35089 ft | 425 kts | 126° |
| 2026-04-15 11:41 | 43.59102 | 14.09361 | 35087 ft | 425 kts | 126° |
| 2026-04-15 11:41 | 43.55293 | 14.15518 | 35089 ft | 423 kts | 137° |
| 2026-04-15 11:42 | 43.51060 | 14.21158 | 35084 ft | 423 kts | 137° |
| 2026-04-15 11:42 | 43.46818 | 14.26714 | 35084 ft | 423 kts | 137° |
| 2026-04-15 11:43 | 43.42546 | 14.32282 | 35081 ft | 423 kts | 137° |
| 2026-04-15 11:43 | 43.38271 | 14.37840 | 35078 ft | 423 kts | 137° |
| 2026-04-15 11:44 | 43.33994 | 14.43389 | 35076 ft | 423 kts | 137° |
| 2026-04-15 11:44 | 43.29715 | 14.48930 | 35074 ft | 422 kts | 137° |
| 2026-04-15 11:45 | 43.25438 | 14.54459 | 35076 ft | 422 kts | 137° |
| 2026-04-15 11:45 | 43.21171 | 14.59961 | 35071 ft | 422 kts | 137° |
| 2026-04-15 11:46 | 43.16892 | 14.65468 | 35072 ft | 421 kts | 137° |
| 2026-04-15 11:46 | 43.13344 | 14.70026 | 35070 ft | 421 kts | 137° |
| 2026-04-15 11:47 | 43.09075 | 14.75500 | 35067 ft | 421 kts | 137° |
| 2026-04-15 11:47 | 43.04799 | 14.80973 | 35068 ft | 421 kts | 136° |
| 2026-04-15 11:48 | 43.00517 | 14.86442 | 35066 ft | 421 kts | 136° |
| 2026-04-15 11:48 | 42.96239 | 14.91894 | 35065 ft | 421 kts | 136° |
| 2026-04-15 11:49 | 42.91965 | 14.97332 | 35064 ft | 421 kts | 136° |
| 2026-04-15 11:49 | 42.87684 | 15.02767 | 35064 ft | 420 kts | 136° |
| 2026-04-15 11:50 | 42.83400 | 15.08194 | 35062 ft | 420 kts | 137° |
| 2026-04-15 11:50 | 42.79113 | 15.13615 | 35063 ft | 420 kts | 137° |
| 2026-04-15 11:51 | 42.74823 | 15.19028 | 35060 ft | 420 kts | 137° |
| 2026-04-15 11:51 | 42.70539 | 15.24424 | 35061 ft | 420 kts | 137° |
| 2026-04-15 11:52 | 42.66258 | 15.29806 | 35057 ft | 419 kts | 137° |
| 2026-04-15 11:52 | 42.61968 | 15.35188 | 35057 ft | 419 kts | 137° |
| 2026-04-15 11:53 | 42.57693 | 15.40541 | 35056 ft | 419 kts | 137° |
| 2026-04-15 11:53 | 42.53439 | 15.45858 | 35058 ft | 418 kts | 137° |
| 2026-04-15 11:54 | 42.49134 | 15.51227 | 35055 ft | 418 kts | 137° |
| 2026-04-15 11:54 | 42.44857 | 15.56551 | 35053 ft | 417 kts | 137° |
| 2026-04-15 11:55 | 42.40605 | 15.61834 | 35052 ft | 417 kts | 137° |
| 2026-04-15 11:55 | 42.36339 | 15.67123 | 35052 ft | 416 kts | 138° |
| 2026-04-15 11:56 | 42.32067 | 15.72411 | 35051 ft | 416 kts | 138° |
| 2026-04-15 11:56 | 42.27797 | 15.77686 | 35052 ft | 416 kts | 138° |
| 2026-04-15 11:57 | 42.21389 | 15.85582 | 35051 ft | 416 kts | 138° |
| 2026-04-15 11:58 | 42.17118 | 15.90833 | 35049 ft | 416 kts | 138° |
| 2026-04-15 11:58 | 42.12849 | 15.96071 | 35048 ft | 415 kts | 139° |
| 2026-04-15 11:59 | 42.08572 | 16.01308 | 35048 ft | 415 kts | 139° |
| 2026-04-15 11:59 | 42.04301 | 16.06530 | 35053 ft | 415 kts | 139° |
| 2026-04-15 12:00 | 42.00017 | 16.11756 | 35053 ft | 415 kts | 139° |
| 2026-04-15 12:00 | 41.95738 | 16.16967 | 35052 ft | 415 kts | 139° |
| 2026-04-15 12:01 | 41.91466 | 16.22159 | 35052 ft | 415 kts | 139° |
| 2026-04-15 12:01 | 41.87186 | 16.27351 | 35056 ft | 415 kts | 139° |
| 2026-04-15 12:02 | 41.82902 | 16.32538 | 35056 ft | 414 kts | 139° |
| 2026-04-15 12:02 | 41.78669 | 16.37654 | 34928 ft | 400 kts | 139° |
| 2026-04-15 12:02 | 41.76622 | 16.40124 | 34694 ft | 391 kts | 140° |
| 2026-04-15 12:03 | 41.74612 | 16.42546 | 34278 ft | 387 kts | 140° |
| 2026-04-15 12:03 | 41.72621 | 16.44945 | 33771 ft | 385 kts | 140° |
| 2026-04-15 12:03 | 41.70665 | 16.47302 | 33365 ft | 380 kts | 140° |
| 2026-04-15 12:03 | 41.68697 | 16.49669 | 32974 ft | 374 kts | 140° |
| 2026-04-15 12:04 | 41.66770 | 16.51985 | 32530 ft | 370 kts | 140° |
| 2026-04-15 12:04 | 41.64865 | 16.54273 | 32077 ft | 367 kts | 140° |
| 2026-04-15 12:04 | 41.63001 | 16.56509 | 31651 ft | 363 kts | 140° |
| 2026-04-15 12:04 | 41.61126 | 16.58756 | 31225 ft | 360 kts | 140° |
| 2026-04-15 12:05 | 41.59273 | 16.60976 | 30801 ft | 357 kts | 140° |
| 2026-04-15 12:05 | 41.57435 | 16.63177 | 30385 ft | 354 kts | 140° |
| 2026-04-15 12:05 | 41.55613 | 16.65356 | 29937 ft | 351 kts | 140° |
| 2026-04-15 12:05 | 41.53803 | 16.67520 | 29455 ft | 348 kts | 140° |
| 2026-04-15 12:06 | 41.52015 | 16.69655 | 29038 ft | 345 kts | 140° |
| 2026-04-15 12:06 | 41.50215 | 16.71803 | 28638 ft | 347 kts | 140° |
| 2026-04-15 12:06 | 41.48411 | 16.73956 | 28235 ft | 347 kts | 140° |
| 2026-04-15 12:06 | 41.46605 | 16.76108 | 27831 ft | 346 kts | 140° |
| 2026-04-15 12:07 | 41.44827 | 16.78225 | 27432 ft | 344 kts | 140° |
| 2026-04-15 12:07 | 41.43049 | 16.80341 | 27029 ft | 341 kts | 140° |
| 2026-04-15 12:07 | 41.41285 | 16.82439 | 26640 ft | 339 kts | 140° |
| 2026-04-15 12:07 | 41.39529 | 16.84525 | 26257 ft | 337 kts | 140° |
| 2026-04-15 12:08 | 41.37811 | 16.86638 | 25826 ft | 337 kts | 134° |
| 2026-04-15 12:08 | 41.36292 | 16.89029 | 25394 ft | 338 kts | 133° |
| 2026-04-15 12:08 | 41.34758 | 16.91382 | 25023 ft | 336 kts | 134° |
| 2026-04-15 12:08 | 41.33217 | 16.93718 | 24646 ft | 335 kts | 134° |
| 2026-04-15 12:09 | 41.31681 | 16.96029 | 24264 ft | 334 kts | 134° |
| 2026-04-15 12:09 | 41.30143 | 16.98335 | 23883 ft | 333 kts | 134° |
| 2026-04-15 12:09 | 41.28625 | 17.00607 | 23470 ft | 331 kts | 134° |
| 2026-04-15 12:09 | 41.27104 | 17.02881 | 23027 ft | 329 kts | 134° |
| 2026-04-15 12:10 | 41.25592 | 17.05139 | 22637 ft | 324 kts | 134° |
| 2026-04-15 12:10 | 41.24103 | 17.07361 | 22263 ft | 321 kts | 134° |
| 2026-04-15 12:10 | 41.22617 | 17.09575 | 21788 ft | 320 kts | 134° |
| 2026-04-15 12:10 | 41.21144 | 17.11768 | 21363 ft | 318 kts | 134° |
| 2026-04-15 12:11 | 41.19677 | 17.13953 | 20982 ft | 315 kts | 134° |
| 2026-04-15 12:11 | 41.18226 | 17.16113 | 20562 ft | 313 kts | 134° |
| 2026-04-15 12:11 | 41.16785 | 17.18257 | 20140 ft | 311 kts | 134° |
| 2026-04-15 12:11 | 41.15347 | 17.20396 | 19781 ft | 308 kts | 134° |
| 2026-04-15 12:12 | 41.13930 | 17.22504 | 19418 ft | 305 kts | 134° |
| 2026-04-15 12:12 | 41.12524 | 17.24591 | 19045 ft | 302 kts | 134° |
| 2026-04-15 12:12 | 41.11126 | 17.26666 | 18687 ft | 300 kts | 134° |
| 2026-04-15 12:12 | 41.09737 | 17.28728 | 18313 ft | 298 kts | 134° |
| 2026-04-15 12:13 | 41.08354 | 17.30777 | 17898 ft | 296 kts | 134° |
| 2026-04-15 12:13 | 41.06991 | 17.32796 | 17515 ft | 293 kts | 134° |
| 2026-04-15 12:13 | 41.05636 | 17.34802 | 17148 ft | 290 kts | 134° |
| 2026-04-15 12:13 | 41.04291 | 17.36792 | 16789 ft | 291 kts | 134° |
| 2026-04-15 12:14 | 41.02929 | 17.38806 | 16424 ft | 293 kts | 134° |
| 2026-04-15 12:14 | 41.01567 | 17.40819 | 16069 ft | 294 kts | 134° |
| 2026-04-15 12:14 | 41.00218 | 17.42810 | 15671 ft | 295 kts | 134° |
| 2026-04-15 12:14 | 40.98835 | 17.44850 | 15280 ft | 293 kts | 134° |
| 2026-04-15 12:15 | 40.97477 | 17.46854 | 14900 ft | 291 kts | 134° |
| 2026-04-15 12:15 | 40.96148 | 17.48812 | 14542 ft | 289 kts | 134° |
| 2026-04-15 12:15 | 40.94809 | 17.50783 | 14189 ft | 286 kts | 134° |
| 2026-04-15 12:15 | 40.93483 | 17.52734 | 13836 ft | 284 kts | 134° |
| 2026-04-15 12:16 | 40.92165 | 17.54673 | 13436 ft | 282 kts | 134° |
| 2026-04-15 12:16 | 40.90856 | 17.56597 | 13060 ft | 279 kts | 134° |
| 2026-04-15 12:16 | 40.89570 | 17.58487 | 12699 ft | 276 kts | 134° |
| 2026-04-15 12:16 | 40.88312 | 17.60408 | 12322 ft | 274 kts | 131° |
| 2026-04-15 12:17 | 40.87089 | 17.62325 | 11967 ft | 272 kts | 131° |
| 2026-04-15 12:17 | 40.85874 | 17.64220 | 11635 ft | 269 kts | 131° |
| 2026-04-15 12:17 | 40.84671 | 17.66092 | 11311 ft | 266 kts | 131° |
| 2026-04-15 12:17 | 40.83476 | 17.67951 | 10979 ft | 266 kts | 131° |
| 2026-04-15 12:18 | 40.82268 | 17.69827 | 10651 ft | 269 kts | 131° |
| 2026-04-15 12:18 | 40.81058 | 17.71705 | 10311 ft | 269 kts | 131° |
| 2026-04-15 12:18 | 40.79844 | 17.73587 | 10020 ft | 266 kts | 131° |
| 2026-04-15 12:18 | 40.78651 | 17.75437 | 9674 ft | 263 kts | 131° |
| 2026-04-15 12:19 | 40.77471 | 17.77263 | 9313 ft | 261 kts | 131° |
| 2026-04-15 12:19 | 40.76293 | 17.79088 | 8975 ft | 259 kts | 131° |
| 2026-04-15 12:19 | 40.75128 | 17.80889 | 8642 ft | 257 kts | 131° |
| 2026-04-15 12:19 | 40.73972 | 17.82677 | 8321 ft | 254 kts | 131° |
| 2026-04-15 12:20 | 40.72830 | 17.84440 | 7999 ft | 252 kts | 131° |
| 2026-04-15 12:20 | 40.71690 | 17.86201 | 7688 ft | 255 kts | 130° |
| 2026-04-15 12:20 | 40.70531 | 17.87990 | 7358 ft | 257 kts | 130° |
| 2026-04-15 12:20 | 40.69371 | 17.89780 | 7032 ft | 256 kts | 130° |
| 2026-04-15 12:21 | 40.68222 | 17.91550 | 6824 ft | 250 kts | 130° |
| 2026-04-15 12:21 | 40.67119 | 17.93250 | 6691 ft | 241 kts | 130° |
| 2026-04-15 12:21 | 40.66042 | 17.94903 | 6541 ft | 233 kts | 132° |
| 2026-04-15 12:21 | 40.64868 | 17.96359 | 6277 ft | 232 kts | 138° |
| 2026-04-15 12:22 | 40.63654 | 17.97771 | 5978 ft | 233 kts | 138° |
| 2026-04-15 12:22 | 40.62444 | 17.99193 | 5682 ft | 232 kts | 138° |
| 2026-04-15 12:22 | 40.61247 | 18.00610 | 5401 ft | 231 kts | 138° |
| 2026-04-15 12:22 | 40.60063 | 18.02016 | 5116 ft | 230 kts | 138° |
| 2026-04-15 12:23 | 40.58882 | 18.03423 | 4848 ft | 229 kts | 138° |
| 2026-04-15 12:23 | 40.57703 | 18.04831 | 4654 ft | 226 kts | 138° |
| 2026-04-15 12:23 | 40.56560 | 18.06194 | 4509 ft | 218 kts | 138° |
| 2026-04-15 12:23 | 40.55460 | 18.07509 | 4378 ft | 208 kts | 138° |
| 2026-04-15 12:24 | 40.54399 | 18.08699 | 4275 ft | 202 kts | 146° |
| 2026-04-15 12:24 | 40.53024 | 18.09357 | 4084 ft | 217 kts | 164° |
| 2026-04-15 12:24 | 40.51661 | 18.10168 | 3897 ft | 213 kts | 145° |
| 2026-04-15 12:24 | 40.50632 | 18.11513 | 3738 ft | 207 kts | 126° |
| 2026-04-15 12:25 | 40.50052 | 18.13186 | 3556 ft | 204 kts | 107° |
| 2026-04-15 12:25 | 40.49586 | 18.14919 | 3315 ft | 196 kts | 130° |
| 2026-04-15 12:25 | 40.48468 | 18.15773 | 3045 ft | 193 kts | 173° |
| 2026-04-15 12:25 | 40.47206 | 18.15248 | 2842 ft | 200 kts | 219° |
| 2026-04-15 12:26 | 40.46586 | 18.13614 | 2645 ft | 210 kts | 264° |
| 2026-04-15 12:26 | 40.47007 | 18.11795 | 2399 ft | 215 kts | 310° |
| 2026-04-15 12:26 | 40.48254 | 18.10787 | 2112 ft | 212 kts | 348° |
| 2026-04-15 12:26 | 40.49680 | 18.10377 | 1900 ft | 210 kts | 350° |
| 2026-04-15 12:27 | 40.51107 | 18.09946 | 1743 ft | 210 kts | 348° |
| 2026-04-15 12:27 | 40.52520 | 18.09513 | 1549 ft | 208 kts | 348° |
| 2026-04-15 12:27 | 40.53921 | 18.09085 | 1386 ft | 202 kts | 348° |
| 2026-04-15 12:27 | 40.55217 | 18.08438 | 1353 ft | 203 kts | 324° |
| 2026-04-15 12:28 | 40.56213 | 18.07103 | 1495 ft | 206 kts | 309° |
| 2026-04-15 12:28 | 40.57033 | 18.05557 | 1888 ft | 207 kts | 294° |
| 2026-04-15 12:28 | 40.57719 | 18.03878 | 1935 ft | 211 kts | 314° |
| 2026-04-15 12:28 | 40.58954 | 18.02955 | 1976 ft | 205 kts | 338° |
| 2026-04-15 12:29 | 40.60063 | 18.01748 | 1620 ft | 210 kts | 310° |
| 2026-04-15 12:29 | 40.61079 | 18.00437 | 1338 ft | 197 kts | 320° |
| 2026-04-15 12:29 | 40.62064 | 17.99311 | 1087 ft | 177 kts | 318° |
| 2026-04-15 12:29 | 40.62880 | 17.98301 | 859 ft | 157 kts | 318° |
| 2026-04-15 12:30 | 40.63646 | 17.97351 | 643 ft | 146 kts | 320° |
| 2026-04-15 12:30 | 40.64377 | 17.96466 | 432 ft | 140 kts | 320° |
| 2026-04-15 12:30 | 40.65084 | 17.95603 | 244 ft | 137 kts | 319° |
| 2026-04-15 12:30 | 40.65779 | 17.94754 | 65 ft | 134 kts | 317° |
| 2026-04-15 12:31 | 40.66389 | 17.94018 | 44 ft | 81 kts | 319° |
| 2026-04-15 12:31 | 40.66560 | 17.93820 | 42 ft | 26 kts | 319° |
| 2026-04-15 12:31 | 40.66692 | 17.93670 | 42 ft | 25 kts | 325° |
| 2026-04-15 12:31 | 40.66799 | 17.93706 | 45 ft | 14 kts | 47° |
| 2026-04-15 12:32 | 40.66796 | 17.93814 | 46 ft | 14 kts | 132° |
| 2026-04-15 12:32 | 40.66719 | 17.93911 | 46 ft | 16 kts | 139° |